sensor_id;sensor_type;location;lat;lon;timestamp;pressure;altitude;pressure_sealevel;temperature;humidity
53960;BME280;39866;48.638;-2.020;2023-03-21T00:00:24;101325.38;;;16.05;55.00
53960;BME280;39866;48.638;-2.020;2023-03-21T00:02:50;101319.19;;;16.03;55.15
53960;BME280;39866;48.638;-2.020;2023-03-21T00:05:15;101312.75;;;16.07;54.88
53960;BME280;39866;48.638;-2.020;2023-03-21T00:07:41;101316.84;;;16.16;54.71
53960;BME280;39866;48.638;-2.020;2023-03-21T00:10:06;101319.53;;;16.16;54.69
53960;BME280;39866;48.638;-2.020;2023-03-21T00:12:32;101321.03;;;16.23;54.74
53960;BME280;39866;48.638;-2.020;2023-03-21T00:15:05;101320.22;;;16.21;55.09
53960;BME280;39866;48.638;-2.020;2023-03-21T00:17:32;101300.72;;;16.16;55.04
53960;BME280;39866;48.638;-2.020;2023-03-21T00:20:02;101291.53;;;16.01;55.83
53960;BME280;39866;48.638;-2.020;2023-03-21T00:22:33;101285.06;;;15.84;55.74
53960;BME280;39866;48.638;-2.020;2023-03-21T00:24:59;101269.00;;;15.83;56.06
53960;BME280;39866;48.638;-2.020;2023-03-21T00:27:24;101278.94;;;15.81;55.97
53960;BME280;39866;48.638;-2.020;2023-03-21T00:29:50;101279.34;;;15.72;56.39
53960;BME280;39866;48.638;-2.020;2023-03-21T00:32:17;101286.69;;;15.89;56.25
53960;BME280;39866;48.638;-2.020;2023-03-21T00:34:43;101285.19;;;15.81;56.32
53960;BME280;39866;48.638;-2.020;2023-03-21T00:37:09;101288.13;;;15.96;55.98
53960;BME280;39866;48.638;-2.020;2023-03-21T00:39:37;101300.91;;;15.91;56.36
53960;BME280;39866;48.638;-2.020;2023-03-21T00:42:02;101304.25;;;15.96;56.14
53960;BME280;39866;48.638;-2.020;2023-03-21T00:44:28;101311.25;;;16.00;56.05
53960;BME280;39866;48.638;-2.020;2023-03-21T00:46:53;101309.81;;;16.13;55.68
53960;BME280;39866;48.638;-2.020;2023-03-21T00:49:19;101291.91;;;16.12;55.50
53960;BME280;39866;48.638;-2.020;2023-03-21T00:51:45;101291.66;;;15.98;56.02
53960;BME280;39866;48.638;-2.020;2023-03-21T00:54:15;101292.72;;;15.94;56.15
53960;BME280;39866;48.638;-2.020;2023-03-21T00:56:41;101303.59;;;15.91;56.53
53960;BME280;39866;48.638;-2.020;2023-03-21T00:59:06;101309.06;;;15.88;56.67
53960;BME280;39866;48.638;-2.020;2023-03-21T01:01:31;101299.81;;;15.95;56.60
53960;BME280;39866;48.638;-2.020;2023-03-21T01:03:59;101299.81;;;15.95;56.59
53960;BME280;39866;48.638;-2.020;2023-03-21T01:06:29;101291.78;;;15.95;56.25
53960;BME280;39866;48.638;-2.020;2023-03-21T01:08:54;101284.53;;;15.97;56.59
53960;BME280;39866;48.638;-2.020;2023-03-21T01:11:25;101273.16;;;15.90;56.76
53960;BME280;39866;48.638;-2.020;2023-03-21T01:13:51;101267.75;;;16.12;56.25
53960;BME280;39866;48.638;-2.020;2023-03-21T01:16:17;101270.69;;;15.85;56.80
53960;BME280;39866;48.638;-2.020;2023-03-21T01:18:42;101276.47;;;15.97;56.72
53960;BME280;39866;48.638;-2.020;2023-03-21T01:21:11;101270.28;;;15.95;56.92
53960;BME280;39866;48.638;-2.020;2023-03-21T01:23:39;101267.91;;;16.09;56.03
53960;BME280;39866;48.638;-2.020;2023-03-21T01:26:06;101268.16;;;16.23;55.97
53960;BME280;39866;48.638;-2.020;2023-03-21T01:28:32;101265.53;;;16.22;56.15
53960;BME280;39866;48.638;-2.020;2023-03-21T01:31:00;101249.88;;;16.11;56.48
53960;BME280;39866;48.638;-2.020;2023-03-21T01:33:26;101255.75;;;16.21;56.42
53960;BME280;39866;48.638;-2.020;2023-03-21T01:35:52;101246.66;;;16.23;56.41
53960;BME280;39866;48.638;-2.020;2023-03-21T01:38:17;101244.63;;;16.28;56.23
53960;BME280;39866;48.638;-2.020;2023-03-21T01:40:46;101244.63;;;16.28;56.06
53960;BME280;39866;48.638;-2.020;2023-03-21T01:48:56;101224.03;;;15.88;57.14
53960;BME280;39866;48.638;-2.020;2023-03-21T01:51:25;101227.25;;;15.76;57.78
53960;BME280;39866;48.638;-2.020;2023-03-21T01:53:51;101235.34;;;15.74;58.18
53960;BME280;39866;48.638;-2.020;2023-03-21T01:56:23;101230.28;;;15.89;57.69
53960;BME280;39866;48.638;-2.020;2023-03-21T01:58:51;101221.53;;;15.83;57.84
53960;BME280;39866;48.638;-2.020;2023-03-21T02:01:20;101210.78;;;15.83;57.85
53960;BME280;39866;48.638;-2.020;2023-03-21T02:03:47;101206.56;;;15.78;58.36
53960;BME280;39866;48.638;-2.020;2023-03-21T02:06:23;101204.44;;;15.86;58.25
53960;BME280;39866;48.638;-2.020;2023-03-21T02:08:51;101201.94;;;16.02;57.71
53960;BME280;39866;48.638;-2.020;2023-03-21T02:11:17;101206.59;;;15.98;58.05
53960;BME280;39866;48.638;-2.020;2023-03-21T02:13:43;101201.81;;;16.05;57.94
53960;BME280;39866;48.638;-2.020;2023-03-21T02:18:55;101202.56;;;16.08;58.01
53960;BME280;39866;48.638;-2.020;2023-03-21T02:21:41;101194.56;;;16.07;58.38
53960;BME280;39866;48.638;-2.020;2023-03-21T02:27:02;101180.19;;;16.08;58.72
53960;BME280;39866;48.638;-2.020;2023-03-21T02:37:40;101195.22;;;15.71;63.02
53960;BME280;39866;48.638;-2.020;2023-03-21T02:40:27;101192.34;;;15.54;64.35
53960;BME280;39866;48.638;-2.020;2023-03-21T02:45:25;101189.19;;;15.22;66.32
53960;BME280;39866;48.638;-2.020;2023-03-21T02:48:03;101182.81;;;15.25;66.76
53960;BME280;39866;48.638;-2.020;2023-03-21T02:50:42;101173.47;;;15.13;67.41
53960;BME280;39866;48.638;-2.020;2023-03-21T02:53:13;101176.09;;;15.15;67.55
53960;BME280;39866;48.638;-2.020;2023-03-21T02:55:41;101171.91;;;15.07;67.86
53960;BME280;39866;48.638;-2.020;2023-03-21T02:58:11;101182.56;;;15.09;68.05
53960;BME280;39866;48.638;-2.020;2023-03-21T03:00:38;101186.50;;;15.00;68.25
53960;BME280;39866;48.638;-2.020;2023-03-21T03:03:03;101174.59;;;15.07;68.26
53960;BME280;39866;48.638;-2.020;2023-03-21T03:05:33;101177.69;;;14.97;68.85
53960;BME280;39866;48.638;-2.020;2023-03-21T03:11:27;101167.72;;;15.00;68.92
53960;BME280;39866;48.638;-2.020;2023-03-21T03:14:00;101163.44;;;14.96;69.18
53960;BME280;39866;48.638;-2.020;2023-03-21T03:16:41;101155.50;;;14.93;69.03
53960;BME280;39866;48.638;-2.020;2023-03-21T03:19:15;101170.97;;;14.86;69.63
53960;BME280;39866;48.638;-2.020;2023-03-21T03:21:52;101174.22;;;14.95;69.49
53960;BME280;39866;48.638;-2.020;2023-03-21T03:24:34;101165.91;;;14.79;69.69
53960;BME280;39866;48.638;-2.020;2023-03-21T03:27:16;101167.09;;;14.94;69.70
53960;BME280;39866;48.638;-2.020;2023-03-21T03:29:45;101161.72;;;14.94;69.75
53960;BME280;39866;48.638;-2.020;2023-03-21T03:34:43;101158.69;;;15.03;69.17
53960;BME280;39866;48.638;-2.020;2023-03-21T03:37:16;101159.75;;;14.99;69.70
53960;BME280;39866;48.638;-2.020;2023-03-21T03:40:12;101147.97;;;15.03;69.42
53960;BME280;39866;48.638;-2.020;2023-03-21T03:42:45;101153.69;;;14.94;69.51
53960;BME280;39866;48.638;-2.020;2023-03-21T03:45:12;101146.31;;;14.77;69.59
53960;BME280;39866;48.638;-2.020;2023-03-21T03:50:27;101152.59;;;14.99;69.72
53960;BME280;39866;48.638;-2.020;2023-03-21T03:52:59;101147.97;;;15.03;69.32
53960;BME280;39866;48.638;-2.020;2023-03-21T03:55:28;101159.25;;;15.11;69.30
53960;BME280;39866;48.638;-2.020;2023-03-21T03:57:59;101161.94;;;15.11;69.37
53960;BME280;39866;48.638;-2.020;2023-03-21T04:00:25;101158.44;;;15.09;69.26
53960;BME280;39866;48.638;-2.020;2023-03-21T04:02:52;101156.63;;;15.09;69.31
53960;BME280;39866;48.638;-2.020;2023-03-21T04:05:17;101141.59;;;15.05;69.69
53960;BME280;39866;48.638;-2.020;2023-03-21T04:07:48;101139.53;;;15.12;69.37
53960;BME280;39866;48.638;-2.020;2023-03-21T04:10:15;101144.03;;;15.11;69.34
53960;BME280;39866;48.638;-2.020;2023-03-21T04:12:41;101152.75;;;15.17;69.34
53960;BME280;39866;48.638;-2.020;2023-03-21T04:15:07;101148.16;;;15.20;69.17
53960;BME280;39866;48.638;-2.020;2023-03-21T04:17:32;101138.47;;;15.16;69.37
53960;BME280;39866;48.638;-2.020;2023-03-21T04:19:58;101134.19;;;15.12;69.49
53960;BME280;39866;48.638;-2.020;2023-03-21T04:22:23;101138.16;;;15.24;69.37
53960;BME280;39866;48.638;-2.020;2023-03-21T04:24:49;101134.03;;;15.37;68.72
53960;BME280;39866;48.638;-2.020;2023-03-21T04:27:14;101145.38;;;15.44;68.74
53960;BME280;39866;48.638;-2.020;2023-03-21T04:29:40;101130.06;;;15.46;68.41
53960;BME280;39866;48.638;-2.020;2023-03-21T04:32:05;101133.91;;;15.40;68.71
53960;BME280;39866;48.638;-2.020;2023-03-21T04:34:43;101132.88;;;15.43;68.44
53960;BME280;39866;48.638;-2.020;2023-03-21T04:37:17;101123.09;;;15.42;68.37
53960;BME280;39866;48.638;-2.020;2023-03-21T04:39:43;101118.88;;;15.36;68.40
53960;BME280;39866;48.638;-2.020;2023-03-21T04:42:10;101117.66;;;15.23;68.61
53960;BME280;39866;48.638;-2.020;2023-03-21T04:44:36;101110.16;;;15.31;68.13
53960;BME280;39866;48.638;-2.020;2023-03-21T04:47:01;101120.88;;;15.31;68.53
53960;BME280;39866;48.638;-2.020;2023-03-21T04:49:26;101133.09;;;15.38;68.17
53960;BME280;39866;48.638;-2.020;2023-03-21T04:51:52;101123.38;;;15.35;68.35
53960;BME280;39866;48.638;-2.020;2023-03-21T04:54:17;101124.25;;;15.36;68.14
53960;BME280;39866;48.638;-2.020;2023-03-21T04:56:43;101123.69;;;15.28;68.51
53960;BME280;39866;48.638;-2.020;2023-03-21T04:59:11;101119.88;;;15.33;68.33
53960;BME280;39866;48.638;-2.020;2023-03-21T05:01:37;101114.47;;;15.35;68.35
53960;BME280;39866;48.638;-2.020;2023-03-21T05:04:03;101119.31;;;15.25;68.22
53960;BME280;39866;48.638;-2.020;2023-03-21T05:06:29;101134.16;;;15.34;68.12
53960;BME280;39866;48.638;-2.020;2023-03-21T05:08:56;101109.25;;;15.30;68.16
53960;BME280;39866;48.638;-2.020;2023-03-21T05:11:29;101118.69;;;15.41;68.25
53960;BME280;39866;48.638;-2.020;2023-03-21T05:13:58;101120.00;;;15.51;68.02
53960;BME280;39866;48.638;-2.020;2023-03-21T05:16:24;101119.16;;;15.50;68.20
53960;BME280;39866;48.638;-2.020;2023-03-21T05:18:52;101120.63;;;15.57;68.11
53960;BME280;39866;48.638;-2.020;2023-03-21T05:21:19;101117.16;;;15.55;67.82
53960;BME280;39866;48.638;-2.020;2023-03-21T05:23:44;101110.63;;;15.61;68.06
53960;BME280;39866;48.638;-2.020;2023-03-21T05:26:10;101111.50;;;15.61;67.93
53960;BME280;39866;48.638;-2.020;2023-03-21T05:28:36;101115.63;;;15.70;67.76
53960;BME280;39866;48.638;-2.020;2023-03-21T05:31:05;101119.47;;;15.63;67.74
53960;BME280;39866;48.638;-2.020;2023-03-21T05:33:31;101131.97;;;15.64;67.93
53960;BME280;39866;48.638;-2.020;2023-03-21T05:35:57;101119.47;;;15.63;67.60
53960;BME280;39866;48.638;-2.020;2023-03-21T05:38:23;101108.66;;;15.66;67.54
53960;BME280;39866;48.638;-2.020;2023-03-21T05:40:49;101117.38;;;15.71;67.55
53960;BME280;39866;48.638;-2.020;2023-03-21T05:43:15;101112.91;;;15.50;67.93
53960;BME280;39866;48.638;-2.020;2023-03-21T05:45:41;101106.25;;;15.58;67.97
53960;BME280;39866;48.638;-2.020;2023-03-21T05:48:06;101110.25;;;15.70;67.76
53960;BME280;39866;48.638;-2.020;2023-03-21T05:50:32;101109.25;;;15.73;67.73
53960;BME280;39866;48.638;-2.020;2023-03-21T05:52:57;101107.13;;;15.81;67.49
53960;BME280;39866;48.638;-2.020;2023-03-21T05:55:22;101097.66;;;15.72;67.87
53960;BME280;39866;48.638;-2.020;2023-03-21T05:57:48;101100.00;;;15.80;67.52
53960;BME280;39866;48.638;-2.020;2023-03-21T06:00:14;101096.28;;;15.82;67.57
53960;BME280;39866;48.638;-2.020;2023-03-21T06:02:40;101086.75;;;15.75;67.33
53960;BME280;39866;48.638;-2.020;2023-03-21T06:05:06;101093.28;;;15.70;67.66
53960;BME280;39866;48.638;-2.020;2023-03-21T06:07:32;101094.69;;;15.78;67.57
53960;BME280;39866;48.638;-2.020;2023-03-21T06:09:57;101102.81;;;15.77;67.74
53960;BME280;39866;48.638;-2.020;2023-03-21T06:12:23;101109.38;;;15.70;67.85
53960;BME280;39866;48.638;-2.020;2023-03-21T06:14:48;101107.38;;;15.75;67.93
53960;BME280;39866;48.638;-2.020;2023-03-21T06:17:13;101111.81;;;15.76;67.79
53960;BME280;39866;48.638;-2.020;2023-03-21T06:19:40;101104.84;;;15.72;67.81
53960;BME280;39866;48.638;-2.020;2023-03-21T06:22:05;101101.88;;;15.78;67.46
53960;BME280;39866;48.638;-2.020;2023-03-21T06:24:30;101111.44;;;15.83;67.61
53960;BME280;39866;48.638;-2.020;2023-03-21T06:26:56;101116.81;;;15.83;67.68
53960;BME280;39866;48.638;-2.020;2023-03-21T06:29:21;101112.53;;;15.79;67.49
53960;BME280;39866;48.638;-2.020;2023-03-21T06:31:47;101121.53;;;15.78;67.76
53960;BME280;39866;48.638;-2.020;2023-03-21T06:34:12;101126.69;;;15.83;67.78
53960;BME280;39866;48.638;-2.020;2023-03-21T06:36:38;101127.56;;;15.83;67.84
53960;BME280;39866;48.638;-2.020;2023-03-21T06:39:04;101114.09;;;15.85;67.75
53960;BME280;39866;48.638;-2.020;2023-03-21T06:41:31;101120.06;;;15.71;67.78
53960;BME280;39866;48.638;-2.020;2023-03-21T06:43:56;101126.13;;;15.76;67.97
53960;BME280;39866;48.638;-2.020;2023-03-21T06:46:22;101130.19;;;15.85;67.61
53960;BME280;39866;48.638;-2.020;2023-03-21T06:48:47;101130.41;;;15.80;67.60
53960;BME280;39866;48.638;-2.020;2023-03-21T06:51:13;101138.31;;;15.83;67.52
53960;BME280;39866;48.638;-2.020;2023-03-21T06:53:39;101141.94;;;15.82;67.66
53960;BME280;39866;48.638;-2.020;2023-03-21T06:56:06;101134.91;;;15.80;68.00
53960;BME280;39866;48.638;-2.020;2023-03-21T06:58:32;101129.16;;;15.88;67.81
53960;BME280;39866;48.638;-2.020;2023-03-21T07:00:59;101131.84;;;15.88;67.82
53960;BME280;39866;48.638;-2.020;2023-03-21T07:03:24;101142.69;;;15.86;67.91
53960;BME280;39866;48.638;-2.020;2023-03-21T07:05:50;101132.94;;;15.83;67.69
53960;BME280;39866;48.638;-2.020;2023-03-21T07:08:15;101140.41;;;15.97;67.86
53960;BME280;39866;48.638;-2.020;2023-03-21T07:10:42;101123.63;;;15.92;67.61
53960;BME280;39866;48.638;-2.020;2023-03-21T07:13:08;101139.53;;;15.97;67.69
53960;BME280;39866;48.638;-2.020;2023-03-21T07:15:34;101141.13;;;16.01;67.98
53960;BME280;39866;48.638;-2.020;2023-03-21T07:18:03;101134.00;;;16.00;67.78
53960;BME280;39866;48.638;-2.020;2023-03-21T07:20:28;101137.56;;;16.00;67.50
53960;BME280;39866;48.638;-2.020;2023-03-21T07:22:53;101138.22;;;16.05;67.73
53960;BME280;39866;48.638;-2.020;2023-03-21T07:25:19;101148.69;;;16.12;67.70
53960;BME280;39866;48.638;-2.020;2023-03-21T07:27:44;101155.75;;;16.14;67.53
53960;BME280;39866;48.638;-2.020;2023-03-21T07:30:14;101144.06;;;16.15;67.55
53960;BME280;39866;48.638;-2.020;2023-03-21T07:32:39;101154.00;;;16.13;67.38
53960;BME280;39866;48.638;-2.020;2023-03-21T07:35:10;101150.38;;;16.14;67.68
53960;BME280;39866;48.638;-2.020;2023-03-21T07:37:36;101153.78;;;16.18;67.46
53960;BME280;39866;48.638;-2.020;2023-03-21T07:40:01;101152.25;;;16.12;67.56
53960;BME280;39866;48.638;-2.020;2023-03-21T07:42:31;101146.69;;;16.17;67.44
53960;BME280;39866;48.638;-2.020;2023-03-21T07:44:56;101152.06;;;16.17;67.52
53960;BME280;39866;48.638;-2.020;2023-03-21T07:47:22;101156.19;;;16.24;67.42
53960;BME280;39866;48.638;-2.020;2023-03-21T07:49:47;101154.25;;;16.27;67.44
53960;BME280;39866;48.638;-2.020;2023-03-21T07:52:13;101157.44;;;16.17;67.50
53960;BME280;39866;48.638;-2.020;2023-03-21T07:54:38;101161.63;;;16.22;67.51
53960;BME280;39866;48.638;-2.020;2023-03-21T07:57:03;101155.94;;;16.30;67.11
53960;BME280;39866;48.638;-2.020;2023-03-21T07:59:29;101159.69;;;16.45;67.07
53960;BME280;39866;48.638;-2.020;2023-03-21T08:01:54;101151.13;;;16.37;66.76
53960;BME280;39866;48.638;-2.020;2023-03-21T08:04:20;101149.81;;;16.26;66.32
53960;BME280;39866;48.638;-2.020;2023-03-21T08:06:46;101164.56;;;16.37;66.34
53960;BME280;39866;48.638;-2.020;2023-03-21T08:09:12;101156.31;;;16.41;66.09
53960;BME280;39866;48.638;-2.020;2023-03-21T08:11:37;101160.22;;;16.34;66.34
53960;BME280;39866;48.638;-2.020;2023-03-21T08:14:03;101166.06;;;16.23;65.61
53960;BME280;39866;48.638;-2.020;2023-03-21T08:16:29;101171.81;;;16.34;65.72
53960;BME280;39866;48.638;-2.020;2023-03-21T08:18:54;101162.38;;;16.45;65.68
53960;BME280;39866;48.638;-2.020;2023-03-21T08:21:19;101167.94;;;16.42;65.40
53960;BME280;39866;48.638;-2.020;2023-03-21T08:23:45;101171.81;;;16.34;65.25
53960;BME280;39866;48.638;-2.020;2023-03-21T08:26:10;101171.69;;;16.38;65.27
53960;BME280;39866;48.638;-2.020;2023-03-21T08:28:36;101178.91;;;16.37;64.86
53960;BME280;39866;48.638;-2.020;2023-03-21T08:31:08;101169.66;;;16.43;64.76
53960;BME280;39866;48.638;-2.020;2023-03-21T08:33:33;101184.78;;;16.45;64.58
53960;BME280;39866;48.638;-2.020;2023-03-21T08:35:59;101184.13;;;16.59;64.23
53960;BME280;39866;48.638;-2.020;2023-03-21T08:38:25;101198.53;;;16.58;64.45
53960;BME280;39866;48.638;-2.020;2023-03-21T08:40:54;101191.03;;;16.65;63.99
53960;BME280;39866;48.638;-2.020;2023-03-21T08:43:19;101200.56;;;16.72;63.61
53960;BME280;39866;48.638;-2.020;2023-03-21T08:45:45;101212.28;;;16.71;63.36
53960;BME280;39866;48.638;-2.020;2023-03-21T08:48:10;101195.66;;;16.61;63.14
53960;BME280;39866;48.638;-2.020;2023-03-21T08:50:35;101200.03;;;16.64;63.51
53960;BME280;39866;48.638;-2.020;2023-03-21T08:53:01;101197.88;;;16.72;62.77
53960;BME280;39866;48.638;-2.020;2023-03-21T08:55:26;101197.13;;;16.68;63.38
53960;BME280;39866;48.638;-2.020;2023-03-21T08:57:52;101205.47;;;16.82;62.70
53960;BME280;39866;48.638;-2.020;2023-03-21T09:00:17;101209.75;;;16.87;62.37
53960;BME280;39866;48.638;-2.020;2023-03-21T09:02:45;101198.78;;;16.91;62.11
53960;BME280;39866;48.638;-2.020;2023-03-21T09:05:13;101196.59;;;16.99;61.88
53960;BME280;39866;48.638;-2.020;2023-03-21T09:07:41;101194.94;;;16.78;61.92
53960;BME280;39866;48.638;-2.020;2023-03-21T09:10:12;101217.25;;;16.99;61.54
53960;BME280;39866;48.638;-2.020;2023-03-21T09:12:38;101211.56;;;17.05;61.71
53960;BME280;39866;48.638;-2.020;2023-03-21T09:15:04;101205.31;;;17.04;61.60
53960;BME280;39866;48.638;-2.020;2023-03-21T09:17:30;101222.91;;;17.12;61.66
53960;BME280;39866;48.638;-2.020;2023-03-21T09:19:57;101213.53;;;17.01;61.07
53960;BME280;39866;48.638;-2.020;2023-03-21T09:22:25;101217.75;;;17.07;61.39
53960;BME280;39866;48.638;-2.020;2023-03-21T09:24:51;101215.25;;;17.21;61.08
53960;BME280;39866;48.638;-2.020;2023-03-21T09:27:18;101220.63;;;17.21;61.60
53960;BME280;39866;48.638;-2.020;2023-03-21T09:29:47;101217.31;;;17.16;61.67
53960;BME280;39866;48.638;-2.020;2023-03-21T09:32:13;101216.22;;;17.20;61.86
53960;BME280;39866;48.638;-2.020;2023-03-21T09:34:38;101220.22;;;17.12;61.40
53960;BME280;39866;48.638;-2.020;2023-03-21T09:37:08;101216.94;;;17.05;60.65
53960;BME280;39866;48.638;-2.020;2023-03-21T09:39:40;101238.47;;;16.86;60.03
53960;BME280;39866;48.638;-2.020;2023-03-21T09:42:37;101218.63;;;16.89;59.52
53960;BME280;39866;48.638;-2.020;2023-03-21T09:45:22;101219.34;;;16.92;60.14
53960;BME280;39866;48.638;-2.020;2023-03-21T09:47:52;101238.59;;;17.02;59.86
53960;BME280;39866;48.638;-2.020;2023-03-21T09:50:23;101229.25;;;16.71;58.67
53960;BME280;39866;48.638;-2.020;2023-03-21T09:52:57;101229.00;;;16.57;58.11
53960;BME280;39866;48.638;-2.020;2023-03-21T09:55:26;101219.56;;;16.88;57.15
53960;BME280;39866;48.638;-2.020;2023-03-21T09:58:19;101210.41;;;16.92;57.27
53960;BME280;39866;48.638;-2.020;2023-03-21T10:00:51;101209.22;;;16.97;57.50
53960;BME280;39866;48.638;-2.020;2023-03-21T10:03:29;101210.84;;;16.82;56.71
53960;BME280;39866;48.638;-2.020;2023-03-21T10:05:56;101193.81;;;16.63;55.63
53960;BME280;39866;48.638;-2.020;2023-03-21T10:10:59;101200.84;;;16.86;55.11
53960;BME280;39866;48.638;-2.020;2023-03-21T10:13:32;101199.34;;;16.98;55.20
53960;BME280;39866;48.638;-2.020;2023-03-21T10:16:11;101194.50;;;16.87;55.39
53960;BME280;39866;48.638;-2.020;2023-03-21T10:18:40;101185.09;;;16.77;54.64
53960;BME280;39866;48.638;-2.020;2023-03-21T10:21:06;101184.97;;;16.99;54.09
53960;BME280;39866;48.638;-2.020;2023-03-21T10:23:32;101176.34;;;16.72;53.50
53960;BME280;39866;48.638;-2.020;2023-03-21T10:26:00;101187.06;;;16.92;52.51
53960;BME280;39866;48.638;-2.020;2023-03-21T10:28:29;101179.00;;;16.92;52.29
53960;BME280;39866;48.638;-2.020;2023-03-21T10:30:59;101177.47;;;17.05;51.71
53960;BME280;39866;48.638;-2.020;2023-03-21T10:33:38;101176.81;;;17.37;51.25
53960;BME280;39866;48.638;-2.020;2023-03-21T10:36:10;101176.03;;;17.34;50.56
53960;BME280;39866;48.638;-2.020;2023-03-21T10:38:40;101179.78;;;17.13;51.16
53960;BME280;39866;48.638;-2.020;2023-03-21T10:41:10;101185.03;;;17.33;50.36
53960;BME280;39866;48.638;-2.020;2023-03-21T10:43:38;101177.78;;;17.36;49.18
53960;BME280;39866;48.638;-2.020;2023-03-21T10:46:16;101178.66;;;17.36;49.42
53960;BME280;39866;48.638;-2.020;2023-03-21T10:48:43;101177.91;;;17.51;50.22
53960;BME280;39866;48.638;-2.020;2023-03-21T10:51:16;101175.75;;;17.58;49.40
53960;BME280;39866;48.638;-2.020;2023-03-21T10:53:46;101182.84;;;17.78;49.20
53960;BME280;39866;48.638;-2.020;2023-03-21T10:56:15;101177.53;;;17.76;48.97
53960;BME280;39866;48.638;-2.020;2023-03-21T10:58:45;101175.78;;;17.93;48.79
53960;BME280;39866;48.638;-2.020;2023-03-21T11:01:15;101180.13;;;17.95;49.57
53960;BME280;39866;48.638;-2.020;2023-03-21T11:03:55;101174.09;;;18.07;49.43
53960;BME280;39866;48.638;-2.020;2023-03-21T11:08:53;101175.84;;;17.91;48.64
53960;BME280;39866;48.638;-2.020;2023-03-21T11:11:24;101174.41;;;18.19;48.53
53960;BME280;39866;48.638;-2.020;2023-03-21T11:13:57;101180.34;;;18.25;48.52
53960;BME280;39866;48.638;-2.020;2023-03-21T11:16:30;101171.84;;;18.33;48.67
53960;BME280;39866;48.638;-2.020;2023-03-21T11:19:01;101179.31;;;18.44;47.52
53960;BME280;39866;48.638;-2.020;2023-03-21T11:21:34;101177.81;;;18.22;48.64
53960;BME280;39866;48.638;-2.020;2023-03-21T11:24:01;101183.03;;;18.25;48.72
53960;BME280;39866;48.638;-2.020;2023-03-21T11:26:32;101181.59;;;18.51;48.41
53960;BME280;39866;48.638;-2.020;2023-03-21T11:29:30;101178.16;;;18.49;48.01
53960;BME280;39866;48.638;-2.020;2023-03-21T11:31:57;101181.03;;;18.62;48.02
53960;BME280;39866;48.638;-2.020;2023-03-21T11:34:43;101177.94;;;18.52;49.07
53960;BME280;39866;48.638;-2.020;2023-03-21T11:37:19;101199.56;;;18.68;48.83
53960;BME280;39866;48.638;-2.020;2023-03-21T11:39:44;101194.09;;;18.37;49.94
53960;BME280;39866;48.638;-2.020;2023-03-21T11:42:30;101201.75;;;18.44;48.95
53960;BME280;39866;48.638;-2.020;2023-03-21T11:45:10;101195.66;;;18.41;49.56
53960;BME280;39866;48.638;-2.020;2023-03-21T11:47:36;101190.16;;;18.26;49.09
53960;BME280;39866;48.638;-2.020;2023-03-21T11:50:10;101195.84;;;18.38;48.70
53960;BME280;39866;48.638;-2.020;2023-03-21T11:52:43;101197.63;;;18.54;49.18
53960;BME280;39866;48.638;-2.020;2023-03-21T11:55:31;101195.75;;;18.72;48.21
53960;BME280;39866;48.638;-2.020;2023-03-21T11:58:08;101183.28;;;18.54;48.81
53960;BME280;39866;48.638;-2.020;2023-03-21T12:00:49;101181.09;;;18.61;48.37
53960;BME280;39866;48.638;-2.020;2023-03-21T12:06:02;101183.16;;;18.73;48.71
53960;BME280;39866;48.638;-2.020;2023-03-21T12:09:14;101179.72;;;18.69;49.51
53960;BME280;39866;48.638;-2.020;2023-03-21T12:22:40;101172.91;;;18.79;48.97
53960;BME280;39866;48.638;-2.020;2023-03-21T12:25:25;101177.94;;;18.86;48.77
53960;BME280;39866;48.638;-2.020;2023-03-21T12:33:27;101167.66;;;18.76;48.44
53960;BME280;39866;48.638;-2.020;2023-03-21T12:39:03;101166.50;;;18.65;46.35
53960;BME280;39866;48.638;-2.020;2023-03-21T12:44:19;101148.09;;;18.89;46.80
53960;BME280;39866;48.638;-2.020;2023-03-21T12:46:48;101161.41;;;18.92;48.19
53960;BME280;39866;48.638;-2.020;2023-03-21T12:49:38;101154.53;;;19.02;47.35
53960;BME280;39866;48.638;-2.020;2023-03-21T12:52:12;101145.56;;;18.86;47.16
53960;BME280;39866;48.638;-2.020;2023-03-21T12:54:51;101140.25;;;19.00;46.90
53960;BME280;39866;48.638;-2.020;2023-03-21T12:57:28;101128.25;;;18.90;45.44
53960;BME280;39866;48.638;-2.020;2023-03-21T13:00:00;101127.03;;;18.79;46.27
53960;BME280;39866;48.638;-2.020;2023-03-21T13:02:37;101141.13;;;18.85;46.40
53960;BME280;39866;48.638;-2.020;2023-03-21T13:05:06;101142.69;;;19.20;45.25
53960;BME280;39866;48.638;-2.020;2023-03-21T13:07:42;101130.72;;;18.94;45.72
53960;BME280;39866;48.638;-2.020;2023-03-21T13:10:13;101133.72;;;19.20;45.60
53960;BME280;39866;48.638;-2.020;2023-03-21T13:12:44;101141.81;;;18.88;45.50
53960;BME280;39866;48.638;-2.020;2023-03-21T13:20:54;101132.31;;;19.13;45.25
53960;BME280;39866;48.638;-2.020;2023-03-21T13:23:22;101128.47;;;19.17;44.87
53960;BME280;39866;48.638;-2.020;2023-03-21T13:25:49;101128.06;;;19.09;45.39
53960;BME280;39866;48.638;-2.020;2023-03-21T13:28:28;101120.22;;;19.20;45.98
53960;BME280;39866;48.638;-2.020;2023-03-21T13:31:20;101133.16;;;19.29;47.06
53960;BME280;39866;48.638;-2.020;2023-03-21T13:33:51;101121.22;;;19.33;46.79
53960;BME280;39866;48.638;-2.020;2023-03-21T13:36:24;101122.09;;;19.34;47.45
53960;BME280;39866;48.638;-2.020;2023-03-21T13:38:51;101119.19;;;19.52;47.49
53960;BME280;39866;48.638;-2.020;2023-03-21T13:41:20;101126.81;;;19.76;46.50
53960;BME280;39866;48.638;-2.020;2023-03-21T13:44:05;101114.84;;;19.80;45.65
53960;BME280;39866;48.638;-2.020;2023-03-21T13:46:53;101109.06;;;19.56;45.47
53960;BME280;39866;48.638;-2.020;2023-03-21T13:49:36;101098.13;;;19.73;45.88
53960;BME280;39866;48.638;-2.020;2023-03-21T13:54:53;101095.25;;;19.91;45.13
53960;BME280;39866;48.638;-2.020;2023-03-21T14:02:52;101111.63;;;19.88;45.47
53960;BME280;39866;48.638;-2.020;2023-03-21T14:05:21;101114.47;;;19.56;46.57